sensor_id;sensor_type;location;lat;lon;timestamp;temperature;humidity
52963;DHT22;38827;53.024;6.596;2023-01-24T00:00:09;4.30;79.00
52963;DHT22;38827;53.024;6.596;2023-01-24T00:02:36;4.30;79.10
52963;DHT22;38827;53.024;6.596;2023-01-24T00:05:03;4.30;79.10
52963;DHT22;38827;53.024;6.596;2023-01-24T00:07:29;4.30;79.20
52963;DHT22;38827;53.024;6.596;2023-01-24T00:09:54;4.30;79.20
52963;DHT22;38827;53.024;6.596;2023-01-24T00:12:20;4.30;79.20
52963;DHT22;38827;53.024;6.596;2023-01-24T00:14:46;4.30;79.30
52963;DHT22;38827;53.024;6.596;2023-01-24T00:17:12;4.30;79.30
52963;DHT22;38827;53.024;6.596;2023-01-24T00:19:38;4.30;79.30
52963;DHT22;38827;53.024;6.596;2023-01-24T00:22:04;4.30;79.20
52963;DHT22;38827;53.024;6.596;2023-01-24T00:24:30;4.30;79.20
52963;DHT22;38827;53.024;6.596;2023-01-24T00:26:58;4.30;79.30
52963;DHT22;38827;53.024;6.596;2023-01-24T00:29:29;4.30;79.30
52963;DHT22;38827;53.024;6.596;2023-01-24T00:31:55;4.30;79.40
52963;DHT22;38827;53.024;6.596;2023-01-24T00:34:21;4.30;79.40
52963;DHT22;38827;53.024;6.596;2023-01-24T00:36:46;4.30;79.30
52963;DHT22;38827;53.024;6.596;2023-01-24T00:39:12;4.30;79.30
52963;DHT22;38827;53.024;6.596;2023-01-24T00:41:39;4.30;79.20
52963;DHT22;38827;53.024;6.596;2023-01-24T00:44:04;4.30;79.20
52963;DHT22;38827;53.024;6.596;2023-01-24T00:46:30;4.30;79.30
52963;DHT22;38827;53.024;6.596;2023-01-24T00:48:56;4.20;79.40
52963;DHT22;38827;53.024;6.596;2023-01-24T00:51:22;4.20;79.50
52963;DHT22;38827;53.024;6.596;2023-01-24T00:53:47;4.20;79.50
52963;DHT22;38827;53.024;6.596;2023-01-24T00:56:13;4.20;79.50
52963;DHT22;38827;53.024;6.596;2023-01-24T00:58:38;4.20;79.60
52963;DHT22;38827;53.024;6.596;2023-01-24T01:01:04;4.20;79.50
52963;DHT22;38827;53.024;6.596;2023-01-24T01:03:30;4.20;79.60
52963;DHT22;38827;53.024;6.596;2023-01-24T01:06:09;4.20;79.60
52963;DHT22;38827;53.024;6.596;2023-01-24T01:08:35;4.20;79.50
52963;DHT22;38827;53.024;6.596;2023-01-24T01:11:01;4.20;79.60
52963;DHT22;38827;53.024;6.596;2023-01-24T01:13:27;4.20;79.60
52963;DHT22;38827;53.024;6.596;2023-01-24T01:16:02;4.20;79.50
52963;DHT22;38827;53.024;6.596;2023-01-24T01:18:28;4.20;79.70
52963;DHT22;38827;53.024;6.596;2023-01-24T01:20:54;4.20;79.80
52963;DHT22;38827;53.024;6.596;2023-01-24T01:23:19;4.20;79.70
52963;DHT22;38827;53.024;6.596;2023-01-24T01:25:45;4.20;79.80
52963;DHT22;38827;53.024;6.596;2023-01-24T01:28:11;4.20;80.00
52963;DHT22;38827;53.024;6.596;2023-01-24T01:30:36;4.20;79.90
52963;DHT22;38827;53.024;6.596;2023-01-24T01:33:02;4.20;80.00
52963;DHT22;38827;53.024;6.596;2023-01-24T01:35:27;4.20;80.10
52963;DHT22;38827;53.024;6.596;2023-01-24T01:37:53;4.20;80.10
52963;DHT22;38827;53.024;6.596;2023-01-24T01:40:19;4.20;80.10
52963;DHT22;38827;53.024;6.596;2023-01-24T01:42:53;4.20;80.10
52963;DHT22;38827;53.024;6.596;2023-01-24T01:45:31;4.30;80.10
52963;DHT22;38827;53.024;6.596;2023-01-24T01:47:59;4.30;80.20
52963;DHT22;38827;53.024;6.596;2023-01-24T01:50:33;4.30;80.10
52963;DHT22;38827;53.024;6.596;2023-01-24T01:53:02;4.30;80.20
52963;DHT22;38827;53.024;6.596;2023-01-24T01:55:32;4.20;80.30
52963;DHT22;38827;53.024;6.596;2023-01-24T01:58:00;4.20;80.40
52963;DHT22;38827;53.024;6.596;2023-01-24T02:00:28;4.20;80.40
52963;DHT22;38827;53.024;6.596;2023-01-24T02:03:08;4.30;80.40
52963;DHT22;38827;53.024;6.596;2023-01-24T02:05:53;4.20;80.50
52963;DHT22;38827;53.024;6.596;2023-01-24T02:08:21;4.20;80.50
52963;DHT22;38827;53.024;6.596;2023-01-24T02:10:51;4.20;80.50
52963;DHT22;38827;53.024;6.596;2023-01-24T02:13:40;4.20;80.60
52963;DHT22;38827;53.024;6.596;2023-01-24T02:16:10;4.20;80.50
52963;DHT22;38827;53.024;6.596;2023-01-24T02:18:38;4.20;80.60
52963;DHT22;38827;53.024;6.596;2023-01-24T02:21:07;4.20;80.60
52963;DHT22;38827;53.024;6.596;2023-01-24T02:24:02;4.20;80.50
52963;DHT22;38827;53.024;6.596;2023-01-24T02:26:31;4.20;80.50
52963;DHT22;38827;53.024;6.596;2023-01-24T02:29:09;4.20;80.70
52963;DHT22;38827;53.024;6.596;2023-01-24T02:34:18;4.20;80.60
52963;DHT22;38827;53.024;6.596;2023-01-24T02:36:44;4.20;80.60
52963;DHT22;38827;53.024;6.596;2023-01-24T02:39:14;4.20;80.50
52963;DHT22;38827;53.024;6.596;2023-01-24T02:41:48;4.20;80.60
52963;DHT22;38827;53.024;6.596;2023-01-24T02:44:23;4.20;80.60
52963;DHT22;38827;53.024;6.596;2023-01-24T02:46:51;4.20;80.50
52963;DHT22;38827;53.024;6.596;2023-01-24T02:49:17;4.20;80.40
52963;DHT22;38827;53.024;6.596;2023-01-24T02:51:42;4.20;80.40
52963;DHT22;38827;53.024;6.596;2023-01-24T02:54:27;4.20;80.30
52963;DHT22;38827;53.024;6.596;2023-01-24T02:56:52;4.20;80.20
52963;DHT22;38827;53.024;6.596;2023-01-24T02:59:36;4.20;80.20
52963;DHT22;38827;53.024;6.596;2023-01-24T03:02:02;4.20;80.00
52963;DHT22;38827;53.024;6.596;2023-01-24T03:04:28;4.20;80.00
52963;DHT22;38827;53.024;6.596;2023-01-24T03:06:53;4.20;79.90
52963;DHT22;38827;53.024;6.596;2023-01-24T03:09:19;4.20;80.00
52963;DHT22;38827;53.024;6.596;2023-01-24T03:11:48;4.20;79.80
52963;DHT22;38827;53.024;6.596;2023-01-24T03:14:16;4.20;79.60
52963;DHT22;38827;53.024;6.596;2023-01-24T03:17:00;4.10;79.60
52963;DHT22;38827;53.024;6.596;2023-01-24T03:19:47;4.10;79.60
52963;DHT22;38827;53.024;6.596;2023-01-24T03:22:31;4.10;79.60
52963;DHT22;38827;53.024;6.596;2023-01-24T03:25:15;4.00;79.40
52963;DHT22;38827;53.024;6.596;2023-01-24T03:28:06;4.00;79.60
52963;DHT22;38827;53.024;6.596;2023-01-24T03:30:50;4.10;79.40
52963;DHT22;38827;53.024;6.596;2023-01-24T03:33:34;4.10;79.40
52963;DHT22;38827;53.024;6.596;2023-01-24T03:36:19;4.00;79.10
52963;DHT22;38827;53.024;6.596;2023-01-24T03:38:48;4.00;79.10
52963;DHT22;38827;53.024;6.596;2023-01-24T03:41:32;4.00;78.90
52963;DHT22;38827;53.024;6.596;2023-01-24T03:43:58;4.00;78.40
52963;DHT22;38827;53.024;6.596;2023-01-24T03:46:23;4.00;78.10
52963;DHT22;38827;53.024;6.596;2023-01-24T03:48:49;4.00;77.80
52963;DHT22;38827;53.024;6.596;2023-01-24T03:51:16;4.00;77.60
52963;DHT22;38827;53.024;6.596;2023-01-24T03:54:00;4.00;77.60
52963;DHT22;38827;53.024;6.596;2023-01-24T03:56:26;4.00;77.50
52963;DHT22;38827;53.024;6.596;2023-01-24T03:58:51;4.00;77.40
52963;DHT22;38827;53.024;6.596;2023-01-24T04:01:19;4.00;77.50
52963;DHT22;38827;53.024;6.596;2023-01-24T04:03:45;4.00;77.40
52963;DHT22;38827;53.024;6.596;2023-01-24T04:06:11;4.00;77.50
52963;DHT22;38827;53.024;6.596;2023-01-24T04:08:43;4.00;77.50
52963;DHT22;38827;53.024;6.596;2023-01-24T04:11:08;4.00;77.60
52963;DHT22;38827;53.024;6.596;2023-01-24T04:13:34;4.00;77.60
52963;DHT22;38827;53.024;6.596;2023-01-24T04:15:59;4.10;77.50
52963;DHT22;38827;53.024;6.596;2023-01-24T04:18:25;4.10;77.50
52963;DHT22;38827;53.024;6.596;2023-01-24T04:21:32;4.10;77.40
52963;DHT22;38827;53.024;6.596;2023-01-24T04:24:15;4.00;76.90
52963;DHT22;38827;53.024;6.596;2023-01-24T04:26:50;4.00;77.00
52963;DHT22;38827;53.024;6.596;2023-01-24T04:29:19;4.00;77.00
52963;DHT22;38827;53.024;6.596;2023-01-24T04:31:46;3.90;77.10
52963;DHT22;38827;53.024;6.596;2023-01-24T04:34:11;3.90;76.80
52963;DHT22;38827;53.024;6.596;2023-01-24T04:36:37;3.90;76.70
52963;DHT22;38827;53.024;6.596;2023-01-24T04:39:03;3.90;76.70
52963;DHT22;38827;53.024;6.596;2023-01-24T04:41:29;3.90;76.60
52963;DHT22;38827;53.024;6.596;2023-01-24T04:43:54;3.90;76.50
52963;DHT22;38827;53.024;6.596;2023-01-24T04:46:20;3.90;76.30
52963;DHT22;38827;53.024;6.596;2023-01-24T04:48:46;3.90;76.30
52963;DHT22;38827;53.024;6.596;2023-01-24T04:51:12;3.90;76.30
52963;DHT22;38827;53.024;6.596;2023-01-24T04:53:41;3.80;76.20
52963;DHT22;38827;53.024;6.596;2023-01-24T04:56:07;3.80;76.30
52963;DHT22;38827;53.024;6.596;2023-01-24T04:58:34;3.80;76.20
52963;DHT22;38827;53.024;6.596;2023-01-24T05:01:00;3.80;76.20
52963;DHT22;38827;53.024;6.596;2023-01-24T05:03:26;3.80;76.10
52963;DHT22;38827;53.024;6.596;2023-01-24T05:05:53;3.70;76.20
52963;DHT22;38827;53.024;6.596;2023-01-24T05:08:20;3.70;76.00
52963;DHT22;38827;53.024;6.596;2023-01-24T05:10:46;3.70;76.10
52963;DHT22;38827;53.024;6.596;2023-01-24T05:13:13;3.70;76.00
52963;DHT22;38827;53.024;6.596;2023-01-24T05:15:49;3.70;76.10
52963;DHT22;38827;53.024;6.596;2023-01-24T05:18:15;3.70;76.00
52963;DHT22;38827;53.024;6.596;2023-01-24T05:20:40;3.70;76.00
52963;DHT22;38827;53.024;6.596;2023-01-24T05:23:06;3.70;76.00
52963;DHT22;38827;53.024;6.596;2023-01-24T05:25:31;3.70;76.00
52963;DHT22;38827;53.024;6.596;2023-01-24T05:27:57;3.70;76.00
52963;DHT22;38827;53.024;6.596;2023-01-24T05:30:23;3.70;76.10
52963;DHT22;38827;53.024;6.596;2023-01-24T05:32:48;3.70;76.30
52963;DHT22;38827;53.024;6.596;2023-01-24T05:35:14;3.70;76.40
52963;DHT22;38827;53.024;6.596;2023-01-24T05:37:40;3.70;76.50
52963;DHT22;38827;53.024;6.596;2023-01-24T05:40:06;3.70;76.60
52963;DHT22;38827;53.024;6.596;2023-01-24T05:42:32;3.70;76.60
52963;DHT22;38827;53.024;6.596;2023-01-24T05:45:01;3.70;76.50
52963;DHT22;38827;53.024;6.596;2023-01-24T05:47:27;3.70;76.60
52963;DHT22;38827;53.024;6.596;2023-01-24T05:49:53;3.70;76.50
52963;DHT22;38827;53.024;6.596;2023-01-24T05:52:18;3.70;76.50
52963;DHT22;38827;53.024;6.596;2023-01-24T05:54:47;3.70;76.40
52963;DHT22;38827;53.024;6.596;2023-01-24T05:57:17;3.60;76.40
52963;DHT22;38827;53.024;6.596;2023-01-24T05:59:42;3.60;76.40
52963;DHT22;38827;53.024;6.596;2023-01-24T06:02:08;3.60;76.50
52963;DHT22;38827;53.024;6.596;2023-01-24T06:04:34;3.60;76.30
52963;DHT22;38827;53.024;6.596;2023-01-24T06:07:02;3.50;76.50
52963;DHT22;38827;53.024;6.596;2023-01-24T06:09:28;3.50;76.50
52963;DHT22;38827;53.024;6.596;2023-01-24T06:11:54;3.50;76.60
52963;DHT22;38827;53.024;6.596;2023-01-24T06:17:28;3.50;76.50
52963;DHT22;38827;53.024;6.596;2023-01-24T06:19:54;3.50;76.70
52963;DHT22;38827;53.024;6.596;2023-01-24T06:22:40;3.50;76.70
52963;DHT22;38827;53.024;6.596;2023-01-24T06:25:18;3.50;76.70
52963;DHT22;38827;53.024;6.596;2023-01-24T06:27:47;3.50;76.90
52963;DHT22;38827;53.024;6.596;2023-01-24T06:30:13;3.50;76.90
52963;DHT22;38827;53.024;6.596;2023-01-24T06:41:37;3.50;77.00
52963;DHT22;38827;53.024;6.596;2023-01-24T06:44:14;3.50;76.90
52963;DHT22;38827;53.024;6.596;2023-01-24T06:46:48;3.50;76.80
52963;DHT22;38827;53.024;6.596;2023-01-24T06:49:29;3.50;76.80
52963;DHT22;38827;53.024;6.596;2023-01-24T06:51:55;3.50;77.10
52963;DHT22;38827;53.024;6.596;2023-01-24T06:57:32;3.60;77.00
52963;DHT22;38827;53.024;6.596;2023-01-24T07:00:07;3.60;77.00
52963;DHT22;38827;53.024;6.596;2023-01-24T07:02:38;3.60;77.20
52963;DHT22;38827;53.024;6.596;2023-01-24T07:05:04;3.60;77.00
52963;DHT22;38827;53.024;6.596;2023-01-24T07:07:38;3.60;76.90
52963;DHT22;38827;53.024;6.596;2023-01-24T07:10:10;3.60;76.80
52963;DHT22;38827;53.024;6.596;2023-01-24T07:12:51;3.50;76.80
52963;DHT22;38827;53.024;6.596;2023-01-24T07:15:35;3.50;76.70
52963;DHT22;38827;53.024;6.596;2023-01-24T07:18:06;3.50;76.60
52963;DHT22;38827;53.024;6.596;2023-01-24T07:20:33;3.40;76.70
52963;DHT22;38827;53.024;6.596;2023-01-24T07:22:59;3.40;76.80
52963;DHT22;38827;53.024;6.596;2023-01-24T07:25:25;3.40;76.80
52963;DHT22;38827;53.024;6.596;2023-01-24T07:27:52;3.40;77.00
52963;DHT22;38827;53.024;6.596;2023-01-24T07:30:18;3.40;77.00
52963;DHT22;38827;53.024;6.596;2023-01-24T07:32:44;3.40;76.90
52963;DHT22;38827;53.024;6.596;2023-01-24T07:35:11;3.40;77.00
52963;DHT22;38827;53.024;6.596;2023-01-24T07:37:36;3.40;77.00
52963;DHT22;38827;53.024;6.596;2023-01-24T07:42:34;3.40;77.00
52963;DHT22;38827;53.024;6.596;2023-01-24T07:44:59;3.40;77.00
52963;DHT22;38827;53.024;6.596;2023-01-24T07:47:26;3.40;76.90
52963;DHT22;38827;53.024;6.596;2023-01-24T07:50:08;3.40;76.90
52963;DHT22;38827;53.024;6.596;2023-01-24T07:52:36;3.40;76.80
52963;DHT22;38827;53.024;6.596;2023-01-24T07:55:02;3.40;77.00
52963;DHT22;38827;53.024;6.596;2023-01-24T07:57:28;3.40;77.20
52963;DHT22;38827;53.024;6.596;2023-01-24T07:59:54;3.40;77.10
52963;DHT22;38827;53.024;6.596;2023-01-24T08:02:32;3.40;77.10
52963;DHT22;38827;53.024;6.596;2023-01-24T08:05:02;3.40;77.10
52963;DHT22;38827;53.024;6.596;2023-01-24T08:07:28;3.40;77.00
52963;DHT22;38827;53.024;6.596;2023-01-24T08:09:54;3.40;76.90
52963;DHT22;38827;53.024;6.596;2023-01-24T08:12:22;3.40;76.80
52963;DHT22;38827;53.024;6.596;2023-01-24T08:14:48;3.40;76.90
52963;DHT22;38827;53.024;6.596;2023-01-24T08:17:16;3.40;77.00
52963;DHT22;38827;53.024;6.596;2023-01-24T08:19:42;3.40;77.20
52963;DHT22;38827;53.024;6.596;2023-01-24T08:22:07;3.40;77.30
52963;DHT22;38827;53.024;6.596;2023-01-24T08:24:33;3.40;77.40
52963;DHT22;38827;53.024;6.596;2023-01-24T08:27:00;3.40;77.40
52963;DHT22;38827;53.024;6.596;2023-01-24T08:29:26;3.50;77.30
52963;DHT22;38827;53.024;6.596;2023-01-24T08:31:51;3.50;77.30
52963;DHT22;38827;53.024;6.596;2023-01-24T08:34:35;3.50;77.20
52963;DHT22;38827;53.024;6.596;2023-01-24T08:37:01;3.50;77.20
52963;DHT22;38827;53.024;6.596;2023-01-24T08:39:29;3.50;77.30
52963;DHT22;38827;53.024;6.596;2023-01-24T08:41:55;3.50;77.30
52963;DHT22;38827;53.024;6.596;2023-01-24T08:44:21;3.50;77.10
52963;DHT22;38827;53.024;6.596;2023-01-24T08:46:47;3.50;77.20
52963;DHT22;38827;53.024;6.596;2023-01-24T08:49:15;3.60;76.90
52963;DHT22;38827;53.024;6.596;2023-01-24T08:51:41;3.60;77.10
52963;DHT22;38827;53.024;6.596;2023-01-24T08:54:07;3.60;77.00
52963;DHT22;38827;53.024;6.596;2023-01-24T08:56:33;3.60;76.90
52963;DHT22;38827;53.024;6.596;2023-01-24T08:59:17;3.60;76.90
52963;DHT22;38827;53.024;6.596;2023-01-24T09:01:49;3.60;76.90
52963;DHT22;38827;53.024;6.596;2023-01-24T09:04:16;3.50;76.80
52963;DHT22;38827;53.024;6.596;2023-01-24T09:06:41;3.60;77.30
52963;DHT22;38827;53.024;6.596;2023-01-24T09:09:28;3.60;77.10
52963;DHT22;38827;53.024;6.596;2023-01-24T09:12:11;3.70;77.00
52963;DHT22;38827;53.024;6.596;2023-01-24T09:14:52;3.70;77.00
52963;DHT22;38827;53.024;6.596;2023-01-24T09:23:33;3.70;76.50
52963;DHT22;38827;53.024;6.596;2023-01-24T09:31:37;3.60;76.30
52963;DHT22;38827;53.024;6.596;2023-01-24T09:34:15;3.60;76.50
52963;DHT22;38827;53.024;6.596;2023-01-24T09:36:53;3.60;76.30
52963;DHT22;38827;53.024;6.596;2023-01-24T09:39:25;3.60;76.30
52963;DHT22;38827;53.024;6.596;2023-01-24T09:42:24;3.60;76.40
52963;DHT22;38827;53.024;6.596;2023-01-24T09:48:06;3.70;76.40
52963;DHT22;38827;53.024;6.596;2023-01-24T09:51:11;3.70;76.40
52963;DHT22;38827;53.024;6.596;2023-01-24T09:56:43;3.60;76.30
52963;DHT22;38827;53.024;6.596;2023-01-24T09:59:42;3.60;76.20
52963;DHT22;38827;53.024;6.596;2023-01-24T10:02:49;3.70;76.20
52963;DHT22;38827;53.024;6.596;2023-01-24T10:05:51;3.70;76.30
52963;DHT22;38827;53.024;6.596;2023-01-24T10:33:32;3.80;75.70
52963;DHT22;38827;53.024;6.596;2023-01-24T10:37:06;3.80;75.70
52963;DHT22;38827;53.024;6.596;2023-01-24T10:39:42;3.80;75.90
52963;DHT22;38827;53.024;6.596;2023-01-24T10:42:28;3.80;75.80
52963;DHT22;38827;53.024;6.596;2023-01-24T10:44:59;3.90;75.40
52963;DHT22;38827;53.024;6.596;2023-01-24T10:50:21;3.80;75.10
52963;DHT22;38827;53.024;6.596;2023-01-24T10:52:52;3.80;75.20
52963;DHT22;38827;53.024;6.596;2023-01-24T11:01:47;3.80;75.30
52963;DHT22;38827;53.024;6.596;2023-01-24T11:04:40;3.70;75.50
52963;DHT22;38827;53.024;6.596;2023-01-24T11:07:26;3.80;75.30
52963;DHT22;38827;53.024;6.596;2023-01-24T11:13:28;3.80;75.40
52963;DHT22;38827;53.024;6.596;2023-01-24T11:16:34;3.80;75.30
52963;DHT22;38827;53.024;6.596;2023-01-24T11:19:36;3.90;75.20
52963;DHT22;38827;53.024;6.596;2023-01-24T11:26:38;4.00;75.40
52963;DHT22;38827;53.024;6.596;2023-01-24T11:49:21;4.30;74.50
52963;DHT22;38827;53.024;6.596;2023-01-24T11:52:45;4.20;74.70
52963;DHT22;38827;53.024;6.596;2023-01-24T11:59:34;4.20;74.50
52963;DHT22;38827;53.024;6.596;2023-01-24T12:25:02;4.10;74.20
52963;DHT22;38827;53.024;6.596;2023-01-24T12:41:51;4.00;74.40
52963;DHT22;38827;53.024;6.596;2023-01-24T12:44:52;4.00;74.50
52963;DHT22;38827;53.024;6.596;2023-01-24T12:48:09;4.10;74.30
52963;DHT22;38827;53.024;6.596;2023-01-24T12:54:32;4.10;74.50
52963;DHT22;38827;53.024;6.596;2023-01-24T13:10:36;4.10;74.30
52963;DHT22;38827;53.024;6.596;2023-01-24T13:31:27;4.00;74.40
52963;DHT22;38827;53.024;6.596;2023-01-24T13:34:15;4.00;74.20
52963;DHT22;38827;53.024;6.596;2023-01-24T13:36:49;4.00;74.30
52963;DHT22;38827;53.024;6.596;2023-01-24T13:39:36;4.00;74.70
52963;DHT22;38827;53.024;6.596;2023-01-24T13:42:21;4.00;74.60
52963;DHT22;38827;53.024;6.596;2023-01-24T13:44:54;4.10;74.90
52963;DHT22;38827;53.024;6.596;2023-01-24T13:47:57;4.10;74.80
52963;DHT22;38827;53.024;6.596;2023-01-24T13:50:34;4.10;74.70
52963;DHT22;38827;53.024;6.596;2023-01-24T13:56:19;4.10;74.50
52963;DHT22;38827;53.024;6.596;2023-01-24T14:10:05;4.00;74.40
52963;DHT22;38827;53.024;6.596;2023-01-24T14:12:39;4.00;74.90
52963;DHT22;38827;53.024;6.596;2023-01-24T14:15:36;4.00;74.90
52963;DHT22;38827;53.024;6.596;2023-01-24T14:25:35;3.80;74.90
52963;DHT22;38827;53.024;6.596;2023-01-24T14:28:51;3.80;75.20
52963;DHT22;38827;53.024;6.596;2023-01-24T14:31:37;3.80;75.20
52963;DHT22;38827;53.024;6.596;2023-01-24T14:34:20;3.70;75.30
52963;DHT22;38827;53.024;6.596;2023-01-24T14:37:17;3.70;75.40
52963;DHT22;38827;53.024;6.596;2023-01-24T14:39:43;3.60;75.70
52963;DHT22;38827;53.024;6.596;2023-01-24T14:42:27;3.60;75.70
52963;DHT22;38827;53.024;6.596;2023-01-24T14:44:56;3.60;75.60
52963;DHT22;38827;53.024;6.596;2023-01-24T14:47:24;3.50;75.80
52963;DHT22;38827;53.024;6.596;2023-01-24T14:49:52;3.50;75.90
52963;DHT22;38827;53.024;6.596;2023-01-24T14:52:19;3.50;75.90
52963;DHT22;38827;53.024;6.596;2023-01-24T14:57:37;3.40;76.00
52963;DHT22;38827;53.024;6.596;2023-01-24T15:00:23;3.40;76.10
52963;DHT22;38827;53.024;6.596;2023-01-24T15:03:00;3.40;76.20
52963;DHT22;38827;53.024;6.596;2023-01-24T15:05:36;3.30;76.50
52963;DHT22;38827;53.024;6.596;2023-01-24T15:08:14;3.30;76.60
52963;DHT22;38827;53.024;6.596;2023-01-24T15:10:41;3.30;76.40
52963;DHT22;38827;53.024;6.596;2023-01-24T15:14:01;3.20;76.50
52963;DHT22;38827;53.024;6.596;2023-01-24T15:16:45;3.20;76.70
52963;DHT22;38827;53.024;6.596;2023-01-24T15:19:50;3.20;76.60
52963;DHT22;38827;53.024;6.596;2023-01-24T15:22:21;3.20;76.70
52963;DHT22;38827;53.024;6.596;2023-01-24T15:25:27;3.10;76.70
52963;DHT22;38827;53.024;6.596;2023-01-24T15:27:54;3.10;76.60
52963;DHT22;38827;53.024;6.596;2023-01-24T15:30:24;3.00;76.80
52963;DHT22;38827;53.024;6.596;2023-01-24T15:42:46;3.00;76.80
52963;DHT22;38827;53.024;6.596;2023-01-24T15:45:41;2.90;77.00
52963;DHT22;38827;53.024;6.596;2023-01-24T15:52:16;2.90;76.90
52963;DHT22;38827;53.024;6.596;2023-01-24T16:17:50;2.90;77.60
52963;DHT22;38827;53.024;6.596;2023-01-24T16:20:51;2.90;77.90
52963;DHT22;38827;53.024;6.596;2023-01-24T16:23:24;2.90;77.80
52963;DHT22;38827;53.024;6.596;2023-01-24T16:26:00;2.90;77.70
52963;DHT22;38827;53.024;6.596;2023-01-24T16:28:28;2.90;77.70
52963;DHT22;38827;53.024;6.596;2023-01-24T16:31:00;2.90;78.00
52963;DHT22;38827;53.024;6.596;2023-01-24T16:33:30;2.90;78.10
52963;DHT22;38827;53.024;6.596;2023-01-24T16:36:06;2.90;78.30
52963;DHT22;38827;53.024;6.596;2023-01-24T16:38:43;2.90;78.30
52963;DHT22;38827;53.024;6.596;2023-01-24T16:41:24;2.90;78.20
52963;DHT22;38827;53.024;6.596;2023-01-24T16:43:50;2.90;78.30
52963;DHT22;38827;53.024;6.596;2023-01-24T16:46:47;2.90;78.20
52963;DHT22;38827;53.024;6.596;2023-01-24T16:49:19;2.90;78.20
52963;DHT22;38827;53.024;6.596;2023-01-24T16:51:53;2.90;78.30
52963;DHT22;38827;53.024;6.596;2023-01-24T16:54:18;2.90;78.30
52963;DHT22;38827;53.024;6.596;2023-01-24T16:56:58;2.90;78.30
52963;DHT22;38827;53.024;6.596;2023-01-24T16:59:24;2.90;78.20
52963;DHT22;38827;53.024;6.596;2023-01-24T17:01:53;2.80;78.10
52963;DHT22;38827;53.024;6.596;2023-01-24T17:04:34;2.80;78.30
52963;DHT22;38827;53.024;6.596;2023-01-24T17:07:35;2.80;78.40
52963;DHT22;38827;53.024;6.596;2023-01-24T17:10:16;2.80;78.30
52963;DHT22;38827;53.024;6.596;2023-01-24T17:13:07;2.70;78.50
52963;DHT22;38827;53.024;6.596;2023-01-24T17:15:37;2.70;78.60
52963;DHT22;38827;53.024;6.596;2023-01-24T17:18:04;2.70;78.60
52963;DHT22;38827;53.024;6.596;2023-01-24T17:20:41;2.70;78.50
52963;DHT22;38827;53.024;6.596;2023-01-24T17:23:07;2.60;78.60
52963;DHT22;38827;53.024;6.596;2023-01-24T17:25:45;2.50;78.60
52963;DHT22;38827;53.024;6.596;2023-01-24T17:28:10;2.50;78.70
52963;DHT22;38827;53.024;6.596;2023-01-24T17:30:37;2.50;78.80
52963;DHT22;38827;53.024;6.596;2023-01-24T17:33:03;2.50;78.80
52963;DHT22;38827;53.024;6.596;2023-01-24T17:35:28;2.50;78.80
52963;DHT22;38827;53.024;6.596;2023-01-24T17:37:54;2.50;78.90
52963;DHT22;38827;53.024;6.596;2023-01-24T17:40:32;2.40;78.90
52963;DHT22;38827;53.024;6.596;2023-01-24T17:43:12;2.50;79.00
52963;DHT22;38827;53.024;6.596;2023-01-24T17:45:38;2.50;79.00
52963;DHT22;38827;53.024;6.596;2023-01-24T17:48:10;2.50;79.00
52963;DHT22;38827;53.024;6.596;2023-01-24T17:50:37;2.50;78.90
52963;DHT22;38827;53.024;6.596;2023-01-24T17:53:09;2.50;79.10
52963;DHT22;38827;53.024;6.596;2023-01-24T17:55:35;2.50;78.90
52963;DHT22;38827;53.024;6.596;2023-01-24T17:58:01;2.50;79.00
52963;DHT22;38827;53.024;6.596;2023-01-24T18:00:27;2.50;78.80
52963;DHT22;38827;53.024;6.596;2023-01-24T18:05:41;2.50;79.00
52963;DHT22;38827;53.024;6.596;2023-01-24T18:11:46;2.60;78.70
52963;DHT22;38827;53.024;6.596;2023-01-24T18:14:16;2.60;78.60
52963;DHT22;38827;53.024;6.596;2023-01-24T18:16:51;2.60;78.90
52963;DHT22;38827;53.024;6.596;2023-01-24T18:19:20;2.60;79.00
52963;DHT22;38827;53.024;6.596;2023-01-24T18:21:46;2.60;79.00
52963;DHT22;38827;53.024;6.596;2023-01-24T18:24:12;2.60;78.90
52963;DHT22;38827;53.024;6.596;2023-01-24T18:26:38;2.60;78.90
52963;DHT22;38827;53.024;6.596;2023-01-24T18:29:13;2.60;78.70
52963;DHT22;38827;53.024;6.596;2023-01-24T18:31:38;2.60;78.80
52963;DHT22;38827;53.024;6.596;2023-01-24T18:34:04;2.60;78.70
52963;DHT22;38827;53.024;6.596;2023-01-24T18:36:30;2.60;78.90
52963;DHT22;38827;53.024;6.596;2023-01-24T18:38:56;2.60;78.90
52963;DHT22;38827;53.024;6.596;2023-01-24T18:41:46;2.70;78.90
52963;DHT22;38827;53.024;6.596;2023-01-24T18:44:12;2.70;78.70
52963;DHT22;38827;53.024;6.596;2023-01-24T18:46:59;2.70;78.60
52963;DHT22;38827;53.024;6.596;2023-01-24T18:49:33;2.70;78.40
52963;DHT22;38827;53.024;6.596;2023-01-24T18:51:59;2.70;78.60
52963;DHT22;38827;53.024;6.596;2023-01-24T18:54:46;2.70;78.50
52963;DHT22;38827;53.024;6.596;2023-01-24T19:01:34;2.70;78.60
52963;DHT22;38827;53.024;6.596;2023-01-24T19:04:48;2.70;78.60
52963;DHT22;38827;53.024;6.596;2023-01-24T19:07:43;2.70;78.40
52963;DHT22;38827;53.024;6.596;2023-01-24T19:10:16;2.70;78.50
52963;DHT22;38827;53.024;6.596;2023-01-24T19:12:43;2.70;78.80
52963;DHT22;38827;53.024;6.596;2023-01-24T19:16:29;2.60;78.60
52963;DHT22;38827;53.024;6.596;2023-01-24T19:22:04;2.50;78.50
52963;DHT22;38827;53.024;6.596;2023-01-24T19:27:43;2.50;78.50
52963;DHT22;38827;53.024;6.596;2023-01-24T19:37:41;2.40;78.50
52963;DHT22;38827;53.024;6.596;2023-01-24T19:41:04;2.50;78.70
52963;DHT22;38827;53.024;6.596;2023-01-24T19:54:29;2.30;78.60
52963;DHT22;38827;53.024;6.596;2023-01-24T19:57:34;2.30;78.70
52963;DHT22;38827;53.024;6.596;2023-01-24T20:00:04;2.30;78.70
52963;DHT22;38827;53.024;6.596;2023-01-24T20:02:36;2.30;78.80
52963;DHT22;38827;53.024;6.596;2023-01-24T20:05:25;2.30;78.90
52963;DHT22;38827;53.024;6.596;2023-01-24T20:08:02;2.30;78.80
52963;DHT22;38827;53.024;6.596;2023-01-24T20:10:34;2.30;78.90
52963;DHT22;38827;53.024;6.596;2023-01-24T20:13:18;2.30;79.10
52963;DHT22;38827;53.024;6.596;2023-01-24T20:15:47;2.30;79.00
52963;DHT22;38827;53.024;6.596;2023-01-24T20:22:00;2.30;79.10
52963;DHT22;38827;53.024;6.596;2023-01-24T20:24:26;2.30;79.20
52963;DHT22;38827;53.024;6.596;2023-01-24T20:27:00;2.30;79.10
52963;DHT22;38827;53.024;6.596;2023-01-24T20:29:26;2.30;78.90
52963;DHT22;38827;53.024;6.596;2023-01-24T20:31:52;2.20;79.10
52963;DHT22;38827;53.024;6.596;2023-01-24T20:34:30;2.20;79.30
52963;DHT22;38827;53.024;6.596;2023-01-24T20:39:35;2.30;79.50
52963;DHT22;38827;53.024;6.596;2023-01-24T20:42:01;2.30;79.50
52963;DHT22;38827;53.024;6.596;2023-01-24T21:00:36;2.30;79.30
52963;DHT22;38827;53.024;6.596;2023-01-24T21:07:29;2.30;79.10
52963;DHT22;38827;53.024;6.596;2023-01-24T21:14:22;2.20;79.30
52963;DHT22;38827;53.024;6.596;2023-01-24T21:16:54;2.20;79.40
52963;DHT22;38827;53.024;6.596;2023-01-24T21:19:20;2.20;79.30
52963;DHT22;38827;53.024;6.596;2023-01-24T21:21:48;2.20;79.30
52963;DHT22;38827;53.024;6.596;2023-01-24T21:24:47;2.20;79.10
52963;DHT22;38827;53.024;6.596;2023-01-24T21:34:37;2.10;79.10
52963;DHT22;38827;53.024;6.596;2023-01-24T21:37:34;2.10;79.40